Time;durP1;ratioP1;P1;durP2;ratioP2;P2;SDS_P1;SDS_P2;PMS_P1;PMS_P2;Temp;Humidity;BMP_temperature;BMP_pressure;BME280_temperature;BME280_humidity;BME280_pressure;Samples;Min_cycle;Max_cycle;Signal;HPM_P1;HPM_P2
2022/03/12 00:01:52;;;;;;;40.70;13.30;;;;;;;-2.98;44.59;101815.91;52617;1274;1018933;-58
2022/03/12 00:04:24;;;;;;;41.10;12.30;;;;;;;-3.01;44.56;101816.77;52491;1273;1016120;-59
2022/03/12 00:06:57;;;;;;;39.30;12.60;;;;;;;-3.03;44.64;101811.40;52477;1274;1016304;-58
2022/03/12 00:09:29;;;;;;;42.40;13.00;;;;;;;-3.04;44.68;101813.79;52004;1273;1028750;-58
2022/03/12 00:12:01;;;;;;;39.70;12.80;;;;;;;-3.05;44.77;101810.87;52448;1273;1015860;-58
2022/03/12 00:14:34;;;;;;;40.00;13.20;;;;;;;-3.06;44.72;101807.71;52467;1273;1016459;-58
2022/03/12 00:17:07;;;;;;;45.90;16.50;;;;;;;-3.09;44.86;101805.86;52568;1274;1016516;-57
2022/03/12 00:19:42;;;;;;;60.70;23.00;;;;;;;-3.10;44.83;101804.79;52495;1276;1018958;-58
2022/03/12 00:22:14;;;;;;;72.60;25.80;;;;;;;-3.12;44.85;101801.55;52483;1273;1016429;-58
2022/03/12 00:24:46;;;;;;;81.10;28.60;;;;;;;-3.14;44.95;101798.84;52449;1275;1016386;-58
2022/03/12 00:27:18;;;;;;;78.70;27.90;;;;;;;-3.15;44.94;101797.33;52442;1273;1016607;-59
2022/03/12 00:29:51;;;;;;;87.30;30.30;;;;;;;-3.17;44.85;101794.63;52473;1275;1016448;-59
2022/03/12 00:32:23;;;;;;;89.20;29.20;;;;;;;-3.19;45.14;101792.06;52543;1274;1015785;-59
2022/03/12 00:34:55;;;;;;;82.80;24.90;;;;;;;-3.20;45.28;101796.55;52546;1274;1016139;-58
2022/03/12 00:37:26;;;;;;;78.30;25.60;;;;;;;-3.22;45.30;101799.55;52434;1275;1015975;-59
2022/03/12 00:39:58;;;;;;;80.80;26.50;;;;;;;-3.23;45.33;101801.61;52446;1275;1016625;-58
2022/03/12 00:42:30;;;;;;;104.40;32.70;;;;;;;-3.25;45.34;101799.79;52523;1273;1016036;-58
2022/03/12 00:45:03;;;;;;;134.10;40.00;;;;;;;-3.24;45.60;101801.60;52433;1275;1018805;-58
2022/03/12 00:47:34;;;;;;;113.20;35.60;;;;;;;-3.23;45.63;101798.51;52468;1273;1016077;-59
2022/03/12 00:50:08;;;;;;;120.90;36.50;;;;;;;-3.24;45.71;101791.93;52482;1275;1015821;-58
2022/03/12 00:52:40;;;;;;;94.60;27.00;;;;;;;-3.25;45.76;101792.61;52465;1274;1016464;-58
2022/03/12 00:55:13;;;;;;;86.00;26.10;;;;;;;-3.24;45.98;101789.45;52525;1273;1016074;-59
2022/03/12 00:57:45;;;;;;;70.20;22.00;;;;;;;-3.24;46.14;101789.30;52618;1274;1016350;-58
2022/03/12 01:00:20;;;;;;;70.60;23.60;;;;;;;-3.24;46.11;101786.70;52488;1275;1016386;-58
2022/03/12 01:02:52;;;;;;;62.40;19.30;;;;;;;-3.25;46.33;101782.77;52560;1273;1016383;-58
2022/03/12 01:05:41;;;;;;;47.80;17.10;;;;;;;-3.26;46.24;101783.94;52998;1265;1016689;-57
2022/03/12 01:08:13;;;;;;;48.10;16.40;;;;;;;-3.28;46.21;101782.30;52593;1272;1016531;-60
2022/03/12 01:10:46;;;;;;;46.30;17.10;;;;;;;-3.31;46.11;101783.39;52590;1273;1016668;-56
2022/03/12 01:13:18;;;;;;;43.80;16.00;;;;;;;-3.35;46.10;101782.66;53087;1272;1016157;-65
2022/03/12 01:15:50;;;;;;;43.70;15.90;;;;;;;-3.38;46.16;101783.20;52742;1271;1016098;-60
2022/03/12 01:18:24;;;;;;;52.20;17.40;;;;;;;-3.41;46.21;101783.50;52743;1271;1016038;-57
2022/03/12 01:20:56;;;;;;;41.50;14.90;;;;;;;-3.43;46.37;101782.42;52781;1271;1016267;-57
2022/03/12 01:23:37;;;;;;;42.90;16.40;;;;;;;-3.45;46.39;101780.66;52811;1271;1016389;-56
2022/03/12 01:26:10;;;;;;;51.90;15.40;;;;;;;-3.47;46.54;101776.37;52833;1272;1019759;-56
2022/03/12 01:28:43;;;;;;;45.90;14.40;;;;;;;-3.51;46.35;101775.34;52709;1271;1015916;-59
2022/03/12 01:31:15;;;;;;;45.40;15.20;;;;;;;-3.53;46.57;101771.77;52686;1271;1016221;-59
2022/03/12 01:33:48;;;;;;;41.70;14.70;;;;;;;-3.55;46.53;101779.20;52648;1271;1019190;-59
2022/03/12 01:36:20;;;;;;;44.60;15.70;;;;;;;-3.58;46.60;101776.16;52615;1272;1019119;-58
2022/03/12 01:38:54;;;;;;;44.80;16.60;;;;;;;-3.59;46.77;101773.55;52697;1273;1018323;-60
2022/03/12 01:41:27;;;;;;;43.00;14.90;;;;;;;-3.60;46.79;101773.14;52688;1271;1018345;-57
2022/03/12 01:44:01;;;;;;;50.30;15.40;;;;;;;-3.60;46.83;101776.33;52724;1272;1016470;-60
2022/03/12 01:46:35;;;;;;;45.50;15.90;;;;;;;-3.62;46.88;101774.70;52760;1271;1016634;-57
2022/03/12 01:49:11;;;;;;;42.50;15.20;;;;;;;-3.65;46.90;101772.83;52720;1273;1016548;-58
2022/03/12 01:51:44;;;;;;;46.50;15.40;;;;;;;-3.69;46.93;101772.94;52588;1271;1015871;-58
2022/03/12 01:54:21;;;;;;;51.90;17.00;;;;;;;-3.73;47.03;101768.61;52570;1273;1016483;-57
2022/03/12 01:56:54;;;;;;;52.50;17.70;;;;;;;-3.76;46.91;101768.05;52668;1271;1018922;-57
2022/03/12 01:59:28;;;;;;;45.80;15.60;;;;;;;-3.80;47.11;101767.70;52568;1271;1016505;-57
2022/03/12 02:02:01;;;;;;;45.60;17.20;;;;;;;-3.82;47.28;101762.95;52656;1273;1016645;-57
2022/03/12 02:04:33;;;;;;;51.90;17.10;;;;;;;-3.82;47.34;101756.55;52688;1271;1017351;-57
2022/03/12 02:07:05;;;;;;;49.50;16.70;;;;;;;-3.84;47.45;101758.39;52592;1271;1016003;-57
2022/03/12 02:09:37;;;;;;;53.00;16.60;;;;;;;-3.87;47.35;101759.70;52706;1272;1016131;-58
2022/03/12 02:12:11;;;;;;;50.10;16.90;;;;;;;-3.90;47.48;101760.23;52649;1271;1018608;-56
2022/03/12 02:14:43;;;;;;;47.70;16.50;;;;;;;-3.94;47.37;101757.39;52680;1272;1016173;-58
2022/03/12 02:17:15;;;;;;;54.00;18.20;;;;;;;-3.96;47.47;101756.53;52580;1273;1016313;-57
2022/03/12 02:19:47;;;;;;;48.30;16.70;;;;;;;-3.98;47.60;101747.45;52718;1271;1016416;-59
2022/03/12 02:22:19;;;;;;;48.00;15.70;;;;;;;-4.00;47.52;101748.09;52677;1272;1016508;-61
2022/03/12 02:24:53;;;;;;;50.20;16.40;;;;;;;-4.04;47.59;101746.57;52774;1272;1016443;-58
2022/03/12 02:27:25;;;;;;;44.70;16.60;;;;;;;-4.08;47.78;101737.27;52688;1271;1016125;-57
2022/03/12 02:29:59;;;;;;;52.70;17.20;;;;;;;-4.09;47.92;101731.69;52591;1271;1016523;-56
2022/03/12 02:32:31;;;;;;;48.40;17.00;;;;;;;-4.10;48.10;101731.81;52640;1272;1016316;-60
2022/03/12 02:35:03;;;;;;;52.30;16.00;;;;;;;-4.10;48.17;101731.58;52691;1272;1016007;-58
2022/03/12 02:37:34;;;;;;;48.60;16.40;;;;;;;-4.11;48.20;101732.87;52712;1273;1015866;-58
2022/03/12 02:40:10;;;;;;;46.90;17.10;;;;;;;-4.12;48.07;101740.42;52749;1271;1016315;-59
2022/03/12 02:42:43;;;;;;;50.20;16.60;;;;;;;-4.15;48.26;101744.07;52839;1271;1016214;-57
2022/03/12 02:45:15;;;;;;;50.20;17.60;;;;;;;-4.16;48.26;101740.59;52817;1272;1016248;-57
2022/03/12 02:47:48;;;;;;;44.90;16.40;;;;;;;-4.19;48.18;101745.73;52690;1273;1016596;-57
2022/03/12 02:50:21;;;;;;;53.90;17.70;;;;;;;-4.24;48.28;101748.63;52669;1272;1016216;-58
2022/03/12 02:52:53;;;;;;;51.20;17.50;;;;;;;-4.28;48.34;101745.84;52653;1271;1016204;-60
2022/03/12 02:55:26;;;;;;;50.70;16.10;;;;;;;-4.33;48.34;101749.73;52681;1272;1015930;-56
2022/03/12 02:57:58;;;;;;;53.80;17.10;;;;;;;-4.37;48.44;101746.48;52685;1271;1016520;-57
2022/03/12 03:00:31;;;;;;;53.20;18.90;;;;;;;-4.41;48.37;101743.77;52594;1271;1015858;-59
2022/03/12 03:03:03;;;;;;;55.00;18.50;;;;;;;-4.46;48.57;101748.46;52616;1272;1015993;-57
2022/03/12 03:05:46;;;;;;;44.80;16.20;;;;;;;-4.48;48.78;101746.30;52692;1273;1015992;-61
2022/03/12 03:08:20;;;;;;;53.60;17.60;;;;;;;-4.48;48.84;101751.51;52548;1273;1016450;-57
2022/03/12 03:10:53;;;;;;;51.00;16.60;;;;;;;-4.49;48.82;101748.82;52693;1273;1016206;-57
2022/03/12 03:13:42;;;;;;;49.20;16.00;;;;;;;-4.50;48.90;101747.39;52637;1273;1016592;-59
2022/03/12 03:16:18;;;;;;;44.40;15.20;;;;;;;-4.52;49.07;101746.71;52792;1273;1016673;-61
2022/03/12 03:18:54;;;;;;;47.40;15.90;;;;;;;-4.53;49.07;101745.73;52777;1273;1016847;-58
2022/03/12 03:21:28;;;;;;;52.90;15.10;;;;;;;-4.55;49.05;101737.34;52607;1273;1016336;-55
2022/03/12 03:24:00;;;;;;;48.90;16.30;;;;;;;-4.60;49.14;101742.09;52778;1273;1016299;-58
2022/03/12 03:26:57;;;;;;;46.80;15.40;;;;;;;-4.63;49.28;101736.08;52763;1273;1015892;-61
2022/03/12 03:29:30;;;;;;;50.00;14.10;;;;;;;-4.65;49.38;101733.13;52604;1273;1015621;-57
2022/03/12 03:32:05;;;;;;;49.00;14.80;;;;;;;-4.68;49.36;101731.16;52717;1273;1016421;-59
2022/03/12 03:34:39;;;;;;;45.10;15.40;;;;;;;-4.72;49.32;101726.50;52578;1273;1016194;-58
2022/03/12 03:37:10;;;;;;;45.20;13.40;;;;;;;-4.74;49.55;101720.59;52789;1273;1016590;-58
2022/03/12 03:39:43;;;;;;;45.40;14.20;;;;;;;-4.74;49.52;101719.98;52726;1273;1016689;-58
2022/03/12 03:42:21;;;;;;;48.50;13.60;;;;;;;-4.76;49.55;101713.92;52542;1273;1015931;-57
2022/03/12 03:44:57;;;;;;;45.20;14.50;;;;;;;-4.78;49.60;101716.45;52646;1273;1016436;-56
2022/03/12 03:47:29;;;;;;;49.10;15.70;;;;;;;-4.80;49.70;101716.45;52537;1273;1016230;-56
2022/03/12 03:50:01;;;;;;;43.40;15.10;;;;;;;-4.79;49.77;101719.05;52707;1272;1016025;-59
2022/03/12 03:52:34;;;;;;;43.60;14.40;;;;;;;-4.78;49.86;101721.87;52674;1273;1015936;-57
2022/03/12 03:55:07;;;;;;;41.30;14.00;;;;;;;-4.77;49.77;101717.16;52659;1273;1016238;-57
2022/03/12 03:57:39;;;;;;;44.50;14.00;;;;;;;-4.77;49.83;101715.21;52616;1273;1020203;-58
2022/03/12 04:00:14;;;;;;;48.30;14.50;;;;;;;-4.75;49.96;101713.55;52718;1273;1019956;-60
2022/03/12 04:02:46;;;;;;;38.80;14.80;;;;;;;-4.75;49.94;101719.90;52643;1273;1016619;-58
2022/03/12 04:05:18;;;;;;;41.70;14.10;;;;;;;-4.72;49.96;101721.75;52665;1271;1016260;-56
2022/03/12 04:07:50;;;;;;;41.70;13.70;;;;;;;-4.71;49.99;101724.14;52735;1271;1016977;-62
2022/03/12 04:10:22;;;;;;;46.40;14.10;;;;;;;-4.70;50.01;101725.10;52776;1271;1016380;-58
2022/03/12 04:12:54;;;;;;;47.90;16.10;;;;;;;-4.70;50.05;101722.63;52634;1271;1016715;-59
2022/03/12 04:15:26;;;;;;;44.80;14.10;;;;;;;-4.70;50.12;101725.89;52734;1271;1016892;-58
2022/03/12 04:17:58;;;;;;;49.30;15.50;;;;;;;-4.68;50.14;101723.30;52772;1271;1016281;-56
2022/03/12 04:20:30;;;;;;;39.10;13.00;;;;;;;-4.66;50.09;101719.30;52582;1271;1019129;-60
2022/03/12 04:23:02;;;;;;;41.20;13.70;;;;;;;-4.66;50.03;101723.21;53002;1271;1016790;-60
2022/03/12 04:25:35;;;;;;;36.70;14.40;;;;;;;-4.65;50.13;101722.14;52723;1271;1018223;-55
2022/03/12 04:28:09;;;;;;;45.00;13.20;;;;;;;-4.65;50.11;101724.95;52611;1272;1018129;-56
2022/03/12 04:30:41;;;;;;;44.60;13.10;;;;;;;-4.63;50.12;101726.79;52738;1271;1018239;-57
2022/03/12 04:33:15;;;;;;;49.30;14.30;;;;;;;-4.63;50.12;101730.06;52514;1271;1016175;-59
2022/03/12 04:35:47;;;;;;;38.50;12.90;;;;;;;-4.62;50.18;101729.15;52697;1271;1016683;-56
2022/03/12 04:38:19;;;;;;;38.20;10.80;;;;;;;-4.61;50.37;101732.69;52562;1271;1017170;-58
2022/03/12 04:40:51;;;;;;;45.40;13.20;;;;;;;-4.60;50.26;101729.56;52825;1271;1016570;-54
2022/03/12 04:43:23;;;;;;;42.40;12.70;;;;;;;-4.59;50.23;101725.92;52679;1271;1017620;-55
2022/03/12 04:45:55;;;;;;;43.80;12.90;;;;;;;-4.60;50.34;101725.44;52653;1271;1016742;-56
2022/03/12 04:48:28;;;;;;;43.40;12.70;;;;;;;-4.61;50.41;101722.52;52686;1271;1016528;-56
2022/03/12 04:51:00;;;;;;;45.70;13.40;;;;;;;-4.62;50.50;101717.64;52868;1271;1016572;-56
2022/03/12 04:53:32;;;;;;;38.10;11.50;;;;;;;-4.61;50.62;101716.38;52649;1271;1016735;-57
2022/03/12 04:56:03;;;;;;;39.80;12.90;;;;;;;-4.59;50.60;101721.26;52544;1272;1016404;-57
2022/03/12 04:58:36;;;;;;;40.50;12.30;;;;;;;-4.60;50.52;101718.58;52574;1271;1017158;-56
2022/03/12 05:01:08;;;;;;;45.30;13.50;;;;;;;-4.60;50.64;101722.64;52541;1271;1016231;-56
2022/03/12 05:03:42;;;;;;;32.40;10.30;;;;;;;-4.61;50.59;101727.95;52570;1271;1016417;-57
2022/03/12 05:06:15;;;;;;;39.50;12.20;;;;;;;-4.62;50.67;101728.33;52527;1272;1016312;-58
2022/03/12 05:08:48;;;;;;;41.40;12.30;;;;;;;-4.62;50.70;101720.69;52637;1271;1016087;-57
2022/03/12 05:11:19;;;;;;;36.70;12.20;;;;;;;-4.63;50.83;101719.57;52655;1272;1016670;-56
2022/03/12 05:13:53;;;;;;;38.40;12.40;;;;;;;-4.64;50.90;101715.17;52709;1271;1016268;-56
2022/03/12 05:16:27;;;;;;;42.30;12.60;;;;;;;-4.64;50.98;101714.08;52678;1271;1015753;-56
2022/03/12 05:19:00;;;;;;;44.40;13.90;;;;;;;-4.64;51.07;101712.92;52686;1271;1016134;-57
2022/03/12 05:21:32;;;;;;;41.30;13.40;;;;;;;-4.66;50.95;101710.76;52804;1271;1016221;-57
2022/03/12 05:24:04;;;;;;;42.10;13.40;;;;;;;-4.68;51.03;101706.11;52705;1271;1015974;-58
2022/03/12 05:26:36;;;;;;;40.30;12.70;;;;;;;-4.69;51.04;101710.33;52869;1271;1016236;-57
2022/03/12 05:29:09;;;;;;;44.10;13.50;;;;;;;-4.70;51.07;101713.13;52664;1272;1016689;-58
2022/03/12 05:31:40;;;;;;;44.10;13.40;;;;;;;-4.71;51.11;101711.66;52692;1272;1016395;-56
2022/03/12 05:34:12;;;;;;;36.20;11.80;;;;;;;-4.70;51.21;101705.24;52867;1270;1016304;-55
2022/03/12 05:36:44;;;;;;;46.60;13.10;;;;;;;-4.68;51.35;101710.45;52734;1270;1016620;-56
2022/03/12 05:39:16;;;;;;;37.00;11.40;;;;;;;-4.66;51.33;101713.95;52640;1271;1016368;-58
2022/03/12 05:41:49;;;;;;;46.00;11.90;;;;;;;-4.64;51.50;101714.46;52658;1271;1016444;-56
2022/03/12 05:44:26;;;;;;;36.50;12.70;;;;;;;-4.61;51.50;101712.46;52765;1271;1016309;-55
2022/03/12 05:46:58;;;;;;;39.90;12.20;;;;;;;-4.58;51.62;101713.48;52817;1271;1016501;-56
2022/03/12 05:49:31;;;;;;;39.70;12.20;;;;;;;-4.55;51.56;101716.23;52840;1271;1015855;-58
2022/03/12 05:52:04;;;;;;;41.10;12.50;;;;;;;-4.51;51.64;101713.09;52684;1271;1015970;-59
2022/03/12 05:54:36;;;;;;;36.30;11.60;;;;;;;-4.47;51.67;101714.09;52747;1272;1016825;-56
2022/03/12 05:57:08;;;;;;;44.80;12.60;;;;;;;-4.41;51.61;101708.56;52752;1271;1017810;-59
2022/03/12 05:59:41;;;;;;;34.90;11.00;;;;;;;-4.37;51.66;101712.98;52596;1272;1016590;-56
2022/03/12 06:02:13;;;;;;;44.40;13.10;;;;;;;-4.31;51.61;101712.55;52701;1271;1017316;-58
2022/03/12 06:04:45;;;;;;;39.20;12.70;;;;;;;-4.27;51.54;101711.20;52720;1271;1016320;-58
2022/03/12 06:07:17;;;;;;;40.00;12.60;;;;;;;-4.23;51.55;101708.06;52833;1270;1020204;-59
2022/03/12 06:09:49;;;;;;;44.40;13.40;;;;;;;-4.18;51.59;101705.16;52815;1271;1016586;-59
2022/03/12 06:12:24;;;;;;;38.40;12.60;;;;;;;-4.13;51.63;101707.73;52796;1270;1016401;-56
2022/03/12 06:14:57;;;;;;;48.10;14.50;;;;;;;-4.08;51.60;101706.46;52624;1271;1016014;-60
2022/03/12 06:17:28;;;;;;;41.30;13.50;;;;;;;-4.02;51.73;101707.35;54419;1271;1015849;-57
2022/03/12 06:20:01;;;;;;;49.80;14.50;;;;;;;-3.96;51.55;101703.00;53515;1271;1018230;-57
2022/03/12 06:22:33;;;;;;;43.30;13.30;;;;;;;-3.91;51.52;101699.34;54133;1270;1016167;-59
2022/03/12 06:25:06;;;;;;;41.70;14.00;;;;;;;-3.84;51.50;101702.11;52570;1271;1016659;-58
2022/03/12 06:27:39;;;;;;;51.30;15.50;;;;;;;-3.77;51.53;101706.68;52744;1271;1017470;-57
2022/03/12 06:30:14;;;;;;;44.20;15.10;;;;;;;-3.69;51.56;101704.02;52619;1271;1016652;-54
2022/03/12 06:32:47;;;;;;;39.20;12.80;;;;;;;-3.62;51.32;101708.90;52600;1271;1016477;-56
2022/03/12 06:35:19;;;;;;;47.00;16.20;;;;;;;-3.56;51.46;101711.48;52510;1271;1016728;-57
2022/03/12 06:37:52;;;;;;;47.60;16.40;;;;;;;-3.49;51.33;101705.98;52607;1271;1016229;-55
2022/03/12 06:40:28;;;;;;;43.00;14.00;;;;;;;-3.43;51.25;101714.56;52657;1271;1016546;-57
2022/03/12 06:43:07;;;;;;;42.40;14.40;;;;;;;-3.37;51.17;101720.13;52595;1271;1016693;-57
2022/03/12 06:45:40;;;;;;;45.70;14.80;;;;;;;-3.30;51.26;101719.20;52570;1272;1016390;-56
2022/03/12 06:48:12;;;;;;;44.00;14.30;;;;;;;-3.22;51.26;101710.98;52673;1271;1015970;-59
2022/03/12 06:50:45;;;;;;;40.40;13.60;;;;;;;-3.14;50.86;101709.33;52541;1272;1016276;-57
2022/03/12 06:53:17;;;;;;;38.00;13.60;;;;;;;-3.08;50.83;101711.05;52526;1271;1016060;-57
2022/03/12 06:55:49;;;;;;;40.60;14.20;;;;;;;-3.01;50.96;101711.46;52618;1271;1016614;-57
2022/03/12 06:58:22;;;;;;;42.30;14.00;;;;;;;-2.94;50.92;101712.97;52804;1271;1015957;-57
2022/03/12 07:00:55;;;;;;;39.10;13.30;;;;;;;-2.88;50.75;101720.14;52608;1271;1015956;-54
2022/03/12 07:03:27;;;;;;;41.20;13.30;;;;;;;-2.80;50.56;101715.65;52652;1271;1016565;-56
2022/03/12 07:05:59;;;;;;;47.60;15.90;;;;;;;-2.73;50.60;101718.16;52669;1271;1016509;-57
2022/03/12 07:08:31;;;;;;;39.60;14.50;;;;;;;-2.66;50.49;101720.94;52666;1274;1016705;-57
2022/03/12 07:11:03;;;;;;;40.20;13.10;;;;;;;-2.58;50.76;101716.98;52709;1274;1016168;-54
2022/03/12 07:13:36;;;;;;;46.20;15.20;;;;;;;-2.51;50.50;101712.45;52860;1272;1016322;-55
2022/03/12 07:16:08;;;;;;;49.70;15.40;;;;;;;-2.44;50.35;101713.09;52521;1274;1016322;-56
2022/03/12 07:18:40;;;;;;;46.70;16.00;;;;;;;-2.37;50.27;101716.00;52527;1275;1016925;-58
2022/03/12 07:21:12;;;;;;;49.90;16.00;;;;;;;-2.30;50.35;101719.66;52611;1274;1016089;-57
2022/03/12 07:23:44;;;;;;;42.90;13.30;;;;;;;-2.23;50.23;101715.60;52607;1274;1016603;-57
2022/03/12 08:04:35;;;;;;;53.60;17.40;;;;;;;-1.01;49.57;101700.59;52391;1274;1016208;-56
2022/03/12 08:07:09;;;;;;;55.20;20.30;;;;;;;-0.96;49.41;101701.46;52393;1271;1016657;-57
2022/03/12 08:09:40;;;;;;;50.60;17.90;;;;;;;-0.92;49.25;101703.96;52630;1272;1018240;-57
2022/03/12 08:12:14;;;;;;;40.90;15.30;;;;;;;-0.87;49.24;101698.48;52601;1274;1016429;-57
2022/03/12 08:14:46;;;;;;;42.90;15.30;;;;;;;-0.79;48.87;101701.50;52712;1274;1016394;-56
2022/03/12 08:17:19;;;;;;;49.30;17.90;;;;;;;-0.69;48.97;101693.92;52695;1272;1016451;-57
2022/03/12 08:19:52;;;;;;;48.90;17.70;;;;;;;-0.59;48.79;101690.55;52681;1274;1016690;-57
2022/03/12 08:22:24;;;;;;;53.60;18.20;;;;;;;-0.50;48.81;101690.38;52566;1274;1016309;-56
2022/03/12 08:24:55;;;;;;;66.20;23.60;;;;;;;-0.41;48.75;101688.63;52532;1275;1016818;-56
2022/03/12 08:27:27;;;;;;;46.30;17.00;;;;;;;-0.34;48.74;101688.90;52500;1274;1016190;-58
2022/03/12 08:29:59;;;;;;;62.70;21.50;;;;;;;-0.26;48.63;101686.98;52642;1274;1016450;-57
2022/03/12 08:32:31;;;;;;;59.40;22.20;;;;;;;-0.17;48.59;101684.27;52732;1273;1016820;-57
2022/03/12 08:35:05;;;;;;;50.80;18.00;;;;;;;-0.08;48.45;101685.89;52724;1273;1016150;-57
2022/03/12 08:37:37;;;;;;;57.00;18.80;;;;;;;-0.01;48.37;101688.65;52806;1271;1018490;-57
2022/03/12 08:40:12;;;;;;;50.60;18.90;;;;;;;0.06;48.24;101684.04;52724;1274;1016226;-56
2022/03/12 08:42:44;;;;;;;45.50;16.90;;;;;;;0.16;48.18;101682.44;52598;1274;1016976;-56
2022/03/12 08:45:15;;;;;;;42.30;17.10;;;;;;;0.25;48.01;101679.48;54570;1271;1016016;-57
2022/03/12 08:47:48;;;;;;;47.90;18.20;;;;;;;0.34;48.05;101680.38;52934;1271;1016332;-56
2022/03/12 08:50:20;;;;;;;43.50;14.70;;;;;;;0.45;47.69;101678.86;52682;1272;1016356;-57
2022/03/12 08:52:52;;;;;;;49.10;18.10;;;;;;;0.55;47.65;101682.96;52637;1274;1016691;-57
2022/03/12 08:55:24;;;;;;;43.10;17.10;;;;;;;0.63;47.54;101682.19;52675;1274;1016634;-57
2022/03/12 08:57:56;;;;;;;40.70;16.30;;;;;;;0.73;47.55;101678.76;52789;1271;1016375;-56
2022/03/12 09:00:28;;;;;;;50.40;17.60;;;;;;;0.83;47.24;101680.04;52759;1274;1015987;-57
2022/03/12 09:03:01;;;;;;;45.40;16.60;;;;;;;0.92;47.30;101684.91;52664;1273;1019143;-57
2022/03/12 09:05:33;;;;;;;40.50;15.50;;;;;;;0.99;47.04;101686.85;52690;1272;1018308;-57
2022/03/12 09:08:07;;;;;;;37.70;15.10;;;;;;;1.09;47.05;101686.33;52742;1272;1016556;-57
2022/03/12 09:10:39;;;;;;;38.40;15.90;;;;;;;1.23;46.79;101685.27;52697;1271;1016268;-57
2022/03/12 09:13:13;;;;;;;48.50;17.20;;;;;;;1.36;46.56;101681.91;52726;1271;1016557;-55
2022/03/12 09:15:46;;;;;;;43.80;15.60;;;;;;;1.49;46.29;101681.30;52709;1271;1016438;-56
2022/03/12 09:18:17;;;;;;;44.40;18.30;;;;;;;1.61;46.17;101679.50;52685;1271;1017353;-56
2022/03/12 09:20:51;;;;;;;39.80;14.60;;;;;;;1.76;46.02;101675.02;52814;1271;1018382;-53
2022/03/12 09:23:24;;;;;;;46.40;17.30;;;;;;;1.88;45.64;101673.20;52641;1271;1016397;-56
2022/03/12 09:25:57;;;;;;;43.70;15.00;;;;;;;2.01;45.64;101670.98;52754;1271;1016586;-55
2022/03/12 09:28:29;;;;;;;42.80;17.20;;;;;;;2.10;45.68;101672.59;52691;1271;1016646;-56
2022/03/12 09:31:01;;;;;;;31.10;11.90;;;;;;;2.17;45.49;101673.34;52800;1271;1016398;-57
2022/03/12 09:33:35;;;;;;;43.00;16.50;;;;;;;2.27;45.26;101666.38;52672;1271;1016632;-55
2022/03/12 09:36:09;;;;;;;45.40;15.90;;;;;;;2.37;45.04;101667.42;52662;1271;1016446;-56
2022/03/12 09:38:42;;;;;;;41.50;15.40;;;;;;;2.45;44.77;101667.84;52607;1271;1016522;-56
2022/03/12 09:41:14;;;;;;;37.60;12.50;;;;;;;2.56;44.50;101665.99;52772;1271;1016157;-55
2022/03/12 09:43:46;;;;;;;37.40;15.10;;;;;;;2.63;44.37;101666.88;52742;1271;1018577;-55
2022/03/12 09:46:18;;;;;;;36.90;14.70;;;;;;;2.73;44.35;101660.20;52647;1271;1015987;-55
2022/03/12 09:48:50;;;;;;;39.90;14.70;;;;;;;2.84;44.29;101659.04;52734;1271;1017812;-56
2022/03/12 09:51:22;;;;;;;41.20;14.60;;;;;;;2.91;43.97;101658.18;52715;1271;1016777;-57
2022/03/12 09:53:54;;;;;;;37.50;15.80;;;;;;;2.99;43.70;101657.16;52735;1271;1016691;-57
2022/03/12 09:56:27;;;;;;;43.50;15.90;;;;;;;3.07;43.90;101656.06;52777;1271;1016051;-57
2022/03/12 09:58:59;;;;;;;40.00;15.60;;;;;;;3.14;43.67;101648.49;52690;1271;1016643;-57
2022/03/12 10:01:31;;;;;;;40.70;13.40;;;;;;;3.20;43.02;101646.98;52828;1271;1018268;-57
2022/03/12 10:04:03;;;;;;;45.10;16.20;;;;;;;3.27;43.30;101648.08;52695;1271;1016707;-59
2022/03/12 10:06:35;;;;;;;41.30;16.60;;;;;;;3.35;43.19;101647.21;52549;1271;1016320;-56
2022/03/12 10:09:07;;;;;;;36.20;13.40;;;;;;;3.42;43.08;101644.29;52656;1271;1016221;-56
2022/03/12 10:11:41;;;;;;;36.10;12.60;;;;;;;3.50;42.68;101637.89;52761;1271;1016135;-56
2022/03/12 10:14:14;;;;;;;60.60;25.20;;;;;;;3.58;42.79;101639.21;52623;1271;1016311;-58
2022/03/12 10:16:46;;;;;;;37.70;14.80;;;;;;;3.62;42.34;101637.14;52676;1271;1016975;-55
2022/03/12 10:19:19;;;;;;;32.70;13.10;;;;;;;3.69;42.01;101639.73;52684;1271;1016052;-56
2022/03/12 10:21:52;;;;;;;45.50;13.90;;;;;;;3.72;42.27;101631.76;52575;1271;1016381;-54
2022/03/12 10:24:24;;;;;;;36.60;13.00;;;;;;;3.75;42.10;101633.89;52675;1271;1015916;-54
2022/03/12 10:26:56;;;;;;;39.80;12.50;;;;;;;3.84;42.07;101633.30;52579;1271;1016194;-56
2022/03/12 10:29:28;;;;;;;35.20;13.30;;;;;;;3.90;41.82;101631.55;52938;1271;1016260;-55
2022/03/12 10:32:01;;;;;;;36.70;14.00;;;;;;;3.96;41.69;101630.51;52584;1271;1015994;-55
2022/03/12 10:34:33;;;;;;;31.10;11.60;;;;;;;4.04;41.16;101630.95;52720;1271;1016718;-56
2022/03/12 10:37:12;;;;;;;34.90;12.30;;;;;;;4.12;40.82;101633.20;52625;1271;1016396;-55
2022/03/12 10:39:45;;;;;;;31.90;10.20;;;;;;;4.23;40.60;101628.42;52583;1271;1015735;-55
2022/03/12 10:42:17;;;;;;;29.10;10.00;;;;;;;4.30;40.59;101629.00;52743;1271;1016329;-56
2022/03/12 10:44:49;;;;;;;28.30;10.40;;;;;;;4.38;40.71;101631.41;52662;1271;1016768;-62
2022/03/12 10:47:26;;;;;;;32.00;13.10;;;;;;;4.45;40.42;101630.02;52656;1271;1016311;-56
2022/03/12 10:50:04;;;;;;;32.80;10.90;;;;;;;4.52;40.36;101630.30;52740;1271;1016473;-57
2022/03/12 10:52:37;;;;;;;37.50;12.60;;;;;;;4.57;39.95;101627.90;52810;1271;1016041;-56
2022/03/12 10:55:19;;;;;;;28.80;10.00;;;;;;;4.64;39.90;101625.10;52618;1271;1016626;-56
2022/03/12 10:58:07;;;;;;;33.70;11.90;;;;;;;4.69;39.65;101616.99;52568;1271;1016072;-57
2022/03/12 11:00:41;;;;;;;36.50;11.90;;;;;;;4.74;39.51;101614.42;52580;1271;1016295;-56
2022/03/12 11:03:15;;;;;;;26.10;8.80;;;;;;;4.80;39.47;101613.91;52613;1271;1016322;-57
2022/03/12 11:05:47;;;;;;;25.90;8.80;;;;;;;4.86;39.08;101613.41;52646;1271;1016739;-54
2022/03/12 11:08:21;;;;;;;26.90;8.30;;;;;;;4.89;38.79;101608.70;52568;1272;1016600;-57
2022/03/12 11:10:58;;;;;;;27.50;10.60;;;;;;;4.95;38.84;101602.72;52600;1272;1016658;-57
2022/03/12 11:13:41;;;;;;;31.70;12.00;;;;;;;5.05;38.91;101601.46;52839;1273;1016325;-61
2022/03/12 11:16:18;;;;;;;37.00;14.30;;;;;;;5.17;38.91;101598.19;52694;1273;1015925;-56
2022/03/12 11:18:59;;;;;;;35.80;13.70;;;;;;;5.23;38.73;101592.60;52744;1273;1016410;-57
2022/03/12 11:21:37;;;;;;;34.90;11.70;;;;;;;5.28;38.49;101593.97;52915;1273;1016476;-57
2022/03/12 11:24:15;;;;;;;27.70;10.30;;;;;;;5.38;38.42;101586.42;52611;1273;1016179;-56
2022/03/12 11:26:49;;;;;;;31.70;9.60;;;;;;;5.41;38.34;101579.45;52648;1272;1016397;-57
2022/03/12 11:29:24;;;;;;;30.40;11.60;;;;;;;5.44;38.09;101576.23;52641;1273;1016182;-56
2022/03/12 11:32:02;;;;;;;26.40;8.70;;;;;;;5.47;37.66;101572.73;52588;1273;1016021;-57
2022/03/12 11:34:39;;;;;;;34.10;12.80;;;;;;;5.55;37.63;101572.89;52603;1273;1016382;-57
2022/03/12 11:37:16;;;;;;;23.10;7.50;;;;;;;5.60;37.23;101566.80;52684;1273;1017079;-57
2022/03/12 11:39:52;;;;;;;27.10;8.70;;;;;;;5.68;37.14;101564.18;52705;1273;1016340;-58
2022/03/12 11:42:27;;;;;;;26.50;8.80;;;;;;;5.72;37.03;101560.48;52616;1272;1016566;-58
2022/03/12 11:45:01;;;;;;;25.50;7.90;;;;;;;5.77;37.07;101557.35;52663;1271;1016627;-58
2022/03/12 11:47:37;;;;;;;25.60;7.70;;;;;;;5.84;36.80;101559.42;52618;1272;1016721;-58
2022/03/12 11:50:15;;;;;;;27.80;10.90;;;;;;;5.90;36.63;101556.59;52584;1272;1016687;-56
2022/03/12 11:52:50;;;;;;;28.70;8.70;;;;;;;5.96;36.30;101556.43;52947;1270;1016157;-56
2022/03/12 11:55:27;;;;;;;28.50;10.00;;;;;;;6.01;36.22;101547.57;52491;1271;1015975;-58
2022/03/12 11:58:01;;;;;;;25.90;8.10;;;;;;;6.05;36.24;101543.70;52596;1271;1016524;-56
2022/03/12 12:00:34;;;;;;;23.90;7.10;;;;;;;6.11;36.20;101544.34;52630;1271;1016691;-57
2022/03/12 12:03:08;;;;;;;24.60;7.30;;;;;;;6.23;35.69;101538.94;52606;1271;1016577;-58